Luz De Mar — ECIJ — position and weather

sailwx.info

Track history (hours):
 
Tides and Currents Weather Stations Pressure Air Temp Water Temp Dewpoint Dewpoint Depression Visibility Wind Speed Wind Dir Waves Ship Positions

Luz De Mar

Last reported at 2015-Jan-30 05:33 UTC. Time now 2015-Jan-30 11:02 UTC.
Position N 36°07' W 005°24'.

Length 56 m; draft 6.5 m.

Type: SAR. MMSI: 224311000.

Date/timePositionNaut miles runAvg speedWind from/ knotsBaromVisibWave heightAir tempDewpointWater temp
2015-Jan-30 05:33N 36°07' W 005°24'3 2.9
2015-Jan-30 04:33N 36°05' W 005°22'3 3.4
2015-Jan-30 03:33N 36°03' W 005°18'5 4.8
2015-Jan-30 02:33N 36°00' W 005°23'4 0.5
2015-Jan-29 19:31N 36°04' W 005°24'1 0.1
2015-Jan-29 11:24N 36°05' W 005°24'4 0.1
2015-Jan-27 16:33N 36°09' W 005°26'4 4.0
2015-Jan-27 15:34N 36°05' W 005°24'4 2.4
2015-Jan-27 14:05N 36°08' W 005°26'0 0.0
2015-Jan-25 16:33N 36°09' W 005°26'4 4.1
2015-Jan-25 15:33N 36°05' W 005°25'3 2.6
2015-Jan-25 14:33N 36°07' W 005°25'3 2.9
2015-Jan-25 13:33N 36°10' W 005°24'3 0.2
2015-Jan-24 22:22N 36°08' W 005°26'0 0.0
2015-Jan-24 21:22N 36°08' W 005°26'1 0.0
2015-Jan-23 13:33N 36°09' W 005°25'1111.3
2015-Jan-23 12:33N 35°58' W 005°20'4 4.4
2015-Jan-23 11:33N 35°54' W 005°20'0 0.3
2015-Jan-23 10:33N 35°54' W 005°20'0 0.1
2015-Jan-23 09:33N 35°54' W 005°20'0 0.0
2015-Jan-23 08:33N 35°54' W 005°20'1 1.0
2015-Jan-23 07:33N 35°54' W 005°19'0 0.0
2015-Jan-23 06:33N 35°54' W 005°19'0 0.0
2015-Jan-23 05:33N 35°54' W 005°19'0 0.0
2015-Jan-23 04:33N 35°54' W 005°19'0 0.0
2015-Jan-23 03:33N 35°54' W 005°19'0 0.0
2015-Jan-23 02:33N 35°54' W 005°19'0 0.0
2015-Jan-23 01:33N 35°54' W 005°19'0 0.0
2015-Jan-23 00:33N 35°54' W 005°19'0 0.0
2015-Jan-22 23:33N 35°54' W 005°19'0 0.0
2015-Jan-22 22:33N 35°54' W 005°19'0 0.0
2015-Jan-22 21:33N 35°54' W 005°19'0 0.0
2015-Jan-22 20:33N 35°54' W 005°19'0 0.0
2015-Jan-22 19:33N 35°54' W 005°19'0 0.0
2015-Jan-22 18:33N 35°54' W 005°19'0 0.0
2015-Jan-22 17:33N 35°54' W 005°19'0 0.0
2015-Jan-22 16:33N 35°54' W 005°19'0 0.0
2015-Jan-22 15:33N 35°54' W 005°19'0 0.0
2015-Jan-22 14:33N 35°54' W 005°19'0 0.0
2015-Jan-22 13:33N 35°54' W 005°19'0 0.0
2015-Jan-22 12:33N 35°54' W 005°19'0 0.0
2015-Jan-22 11:33N 35°54' W 005°19'0 0.0
2015-Jan-22 10:33N 35°54' W 005°19'0 0.0
2015-Jan-22 09:33N 35°54' W 005°19'0 0.0
2015-Jan-22 08:33N 35°54' W 005°19'0 0.0
2015-Jan-22 07:33N 35°54' W 005°19'0 0.0
2015-Jan-22 06:33N 35°54' W 005°19'0 0.0
2015-Jan-22 05:33N 35°54' W 005°19'0 0.0
2015-Jan-22 04:33N 35°54' W 005°19'0 0.0
2015-Jan-22 03:33N 35°54' W 005°19'0 0.0
2015-Jan-22 02:30N 35°54' W 005°19'0 0.0
2015-Jan-22 01:33N 35°54' W 005°19'0 0.0
2015-Jan-22 00:33N 35°54' W 005°19'0 0.0
2015-Jan-21 23:33N 35°54' W 005°19'0 0.0
2015-Jan-21 22:48N 35°54' W 005°19'0 0.1
2015-Jan-21 22:45N 35°54' W 005°19'0 0.0
2015-Jan-21 22:33N 35°54' W 005°19'0 0.0
2015-Jan-21 21:33N 35°54' W 005°19'0 0.0
2015-Jan-21 20:33N 35°54' W 005°19'0 0.0
2015-Jan-21 19:33N 35°54' W 005°19'0 0.0
2015-Jan-21 18:33N 35°54' W 005°19'0 0.0
2015-Jan-21 17:33N 35°54' W 005°19'0 0.0
2015-Jan-21 16:33N 35°54' W 005°19'0 0.0
2015-Jan-21 15:33N 35°54' W 005°19'0 0.0
2015-Jan-21 14:33N 35°54' W 005°19'0 0.0
2015-Jan-21 13:33N 35°54' W 005°19'1 1.2
2015-Jan-21 12:33N 35°55' W 005°19'1 0.7
2015-Jan-21 11:33N 35°54' W 005°20'0 0.1
2015-Jan-21 10:33N 35°54' W 005°20'0 0.2
2015-Jan-21 09:33N 35°54' W 005°20'0 0.1
2015-Jan-21 08:33N 35°54' W 005°20'1 0.9
2015-Jan-21 07:32N 35°54' W 005°19'0 0.0
2015-Jan-21 06:32N 35°54' W 005°19'0 0.0
2015-Jan-21 05:32N 35°54' W 005°19'0 0.0
2015-Jan-21 04:32N 35°54' W 005°19'0 0.0
2015-Jan-21 03:32N 35°54' W 005°19'0 0.0
2015-Jan-21 02:32N 35°54' W 005°19'0 0.0
2015-Jan-21 01:32N 35°54' W 005°19'0 0.0
2015-Jan-21 00:32N 35°54' W 005°19'0 0.0
2015-Jan-20 23:32N 35°54' W 005°19'0 0.0
2015-Jan-20 22:32N 35°54' W 005°19'0 0.0
2015-Jan-20 21:32N 35°54' W 005°19'0 0.0
2015-Jan-20 20:32N 35°54' W 005°19'0 0.0
2015-Jan-20 19:32N 35°54' W 005°19'0 0.0
2015-Jan-20 18:32N 35°54' W 005°19'0 0.0
2015-Jan-20 17:32N 35°54' W 005°19'0 0.0
2015-Jan-20 16:32N 35°54' W 005°19'0 0.0
2015-Jan-20 15:32N 35°54' W 005°19'0 0.0
2015-Jan-20 14:32N 35°54' W 005°19'0 0.0
2015-Jan-20 13:32N 35°54' W 005°19'0 0.0
2015-Jan-20 12:32N 35°54' W 005°19'0 0.0
2015-Jan-20 11:32N 35°54' W 005°19'0 0.0
2015-Jan-20 10:32N 35°54' W 005°19'0 0.0
2015-Jan-20 09:32N 35°54' W 005°19'0 0.0
2015-Jan-20 08:32N 35°54' W 005°19'0 0.0
2015-Jan-20 07:32N 35°54' W 005°19'0 0.0
2015-Jan-20 06:32N 35°54' W 005°19'  
Track history (hours):
 
Tides and Currents Weather Stations Pressure Air Temp Water Temp Dewpoint Dewpoint Depression Visibility Wind Speed Wind Dir Waves Ship Positions

Luz De Mar

Last reported at 2015-Jan-30 05:33 UTC. Time now 2015-Jan-30 11:02 UTC.
Position N 36°07' W 005°24'.

Length 56 m; draft 6.5 m.

Type: SAR. MMSI: 224311000.

Date/timePositionNaut miles runAvg speedWind from/ knotsBaromVisibWave heightAir tempDewpointWater temp
2015-Jan-30 05:33N 36°07' W 005°24'3 2.9
2015-Jan-30 04:33N 36°05' W 005°22'3 3.4
2015-Jan-30 03:33N 36°03' W 005°18'5 4.8
2015-Jan-30 02:33N 36°00' W 005°23'4 0.5
2015-Jan-29 19:31N 36°04' W 005°24'1 0.1
2015-Jan-29 11:24N 36°05' W 005°24'4 0.1
2015-Jan-27 16:33N 36°09' W 005°26'4 4.0
2015-Jan-27 15:34N 36°05' W 005°24'4 2.4
2015-Jan-27 14:05N 36°08' W 005°26'0 0.0
2015-Jan-25 16:33N 36°09' W 005°26'4 4.1
2015-Jan-25 15:33N 36°05' W 005°25'3 2.6
2015-Jan-25 14:33N 36°07' W 005°25'3 2.9
2015-Jan-25 13:33N 36°10' W 005°24'3 0.2
2015-Jan-24 22:22N 36°08' W 005°26'0 0.0
2015-Jan-24 21:22N 36°08' W 005°26'1 0.0
2015-Jan-23 13:33N 36°09' W 005°25'1111.3
2015-Jan-23 12:33N 35°58' W 005°20'4 4.4
2015-Jan-23 11:33N 35°54' W 005°20'0 0.3
2015-Jan-23 10:33N 35°54' W 005°20'0 0.1
2015-Jan-23 09:33N 35°54' W 005°20'0 0.0
2015-Jan-23 08:33N 35°54' W 005°20'1 1.0
2015-Jan-23 07:33N 35°54' W 005°19'0 0.0
2015-Jan-23 06:33N 35°54' W 005°19'0 0.0
2015-Jan-23 05:33N 35°54' W 005°19'0 0.0
2015-Jan-23 04:33N 35°54' W 005°19'0 0.0
2015-Jan-23 03:33N 35°54' W 005°19'0 0.0
2015-Jan-23 02:33N 35°54' W 005°19'0 0.0
2015-Jan-23 01:33N 35°54' W 005°19'0 0.0
2015-Jan-23 00:33N 35°54' W 005°19'0 0.0
2015-Jan-22 23:33N 35°54' W 005°19'0 0.0
2015-Jan-22 22:33N 35°54' W 005°19'0 0.0
2015-Jan-22 21:33N 35°54' W 005°19'0 0.0
2015-Jan-22 20:33N 35°54' W 005°19'0 0.0
2015-Jan-22 19:33N 35°54' W 005°19'0 0.0
2015-Jan-22 18:33N 35°54' W 005°19'0 0.0
2015-Jan-22 17:33N 35°54' W 005°19'0 0.0
2015-Jan-22 16:33N 35°54' W 005°19'0 0.0
2015-Jan-22 15:33N 35°54' W 005°19'0 0.0
2015-Jan-22 14:33N 35°54' W 005°19'0 0.0
2015-Jan-22 13:33N 35°54' W 005°19'0 0.0
2015-Jan-22 12:33N 35°54' W 005°19'0 0.0
2015-Jan-22 11:33N 35°54' W 005°19'0 0.0
2015-Jan-22 10:33N 35°54' W 005°19'0 0.0
2015-Jan-22 09:33N 35°54' W 005°19'0 0.0
2015-Jan-22 08:33N 35°54' W 005°19'0 0.0
2015-Jan-22 07:33N 35°54' W 005°19'0 0.0
2015-Jan-22 06:33N 35°54' W 005°19'0 0.0
2015-Jan-22 05:33N 35°54' W 005°19'0 0.0
2015-Jan-22 04:33N 35°54' W 005°19'0 0.0
2015-Jan-22 03:33N 35°54' W 005°19'0 0.0
2015-Jan-22 02:30N 35°54' W 005°19'0 0.0
2015-Jan-22 01:33N 35°54' W 005°19'0 0.0
2015-Jan-22 00:33N 35°54' W 005°19'0 0.0
2015-Jan-21 23:33N 35°54' W 005°19'0 0.0
2015-Jan-21 22:48N 35°54' W 005°19'0 0.1
2015-Jan-21 22:45N 35°54' W 005°19'0 0.0
2015-Jan-21 22:33N 35°54' W 005°19'0 0.0
2015-Jan-21 21:33N 35°54' W 005°19'0 0.0
2015-Jan-21 20:33N 35°54' W 005°19'0 0.0
2015-Jan-21 19:33N 35°54' W 005°19'0 0.0
2015-Jan-21 18:33N 35°54' W 005°19'0 0.0
2015-Jan-21 17:33N 35°54' W 005°19'0 0.0
2015-Jan-21 16:33N 35°54' W 005°19'0 0.0
2015-Jan-21 15:33N 35°54' W 005°19'0 0.0
2015-Jan-21 14:33N 35°54' W 005°19'0 0.0
2015-Jan-21 13:33N 35°54' W 005°19'1 1.2
2015-Jan-21 12:33N 35°55' W 005°19'1 0.7
2015-Jan-21 11:33N 35°54' W 005°20'0 0.1
2015-Jan-21 10:33N 35°54' W 005°20'0 0.2
2015-Jan-21 09:33N 35°54' W 005°20'0 0.1
2015-Jan-21 08:33N 35°54' W 005°20'1 0.9
2015-Jan-21 07:32N 35°54' W 005°19'0 0.0
2015-Jan-21 06:32N 35°54' W 005°19'0 0.0
2015-Jan-21 05:32N 35°54' W 005°19'0 0.0
2015-Jan-21 04:32N 35°54' W 005°19'0 0.0
2015-Jan-21 03:32N 35°54' W 005°19'0 0.0
2015-Jan-21 02:32N 35°54' W 005°19'0 0.0
2015-Jan-21 01:32N 35°54' W 005°19'0 0.0
2015-Jan-21 00:32N 35°54' W 005°19'0 0.0
2015-Jan-20 23:32N 35°54' W 005°19'0 0.0
2015-Jan-20 22:32N 35°54' W 005°19'0 0.0
2015-Jan-20 21:32N 35°54' W 005°19'0 0.0
2015-Jan-20 20:32N 35°54' W 005°19'0 0.0
2015-Jan-20 19:32N 35°54' W 005°19'0 0.0
2015-Jan-20 18:32N 35°54' W 005°19'0 0.0
2015-Jan-20 17:32N 35°54' W 005°19'0 0.0
2015-Jan-20 16:32N 35°54' W 005°19'0 0.0
2015-Jan-20 15:32N 35°54' W 005°19'0 0.0
2015-Jan-20 14:32N 35°54' W 005°19'0 0.0
2015-Jan-20 13:32N 35°54' W 005°19'0 0.0
2015-Jan-20 12:32N 35°54' W 005°19'0 0.0
2015-Jan-20 11:32N 35°54' W 005°19'0 0.0
2015-Jan-20 10:32N 35°54' W 005°19'0 0.0
2015-Jan-20 09:32N 35°54' W 005°19'0 0.0
2015-Jan-20 08:32N 35°54' W 005°19'0 0.0
2015-Jan-20 07:32N 35°54' W 005°19'0 0.0
2015-Jan-20 06:32N 35°54' W 005°19'  

Dump ship's entire track history